sensor_id;sensor_type;location;lat;lon;timestamp;pressure;altitude;pressure_sealevel;temperature;humidity
77023;BME280;65952;51.440;-2.054;2023-05-13T00:02:43;101395.25;;;11.17;73.33
77023;BME280;65952;51.440;-2.054;2023-05-13T00:05:09;101399.28;;;10.93;73.71
77023;BME280;65952;51.440;-2.054;2023-05-13T00:07:34;101391.06;;;10.95;73.82
77023;BME280;65952;51.440;-2.054;2023-05-13T00:10:00;101395.72;;;10.83;74.17
77023;BME280;65952;51.440;-2.054;2023-05-13T00:12:25;101397.84;;;10.89;73.51
77023;BME280;65952;51.440;-2.054;2023-05-13T00:14:51;101390.66;;;10.80;73.81
77023;BME280;65952;51.440;-2.054;2023-05-13T00:17:16;101390.25;;;10.75;74.17
77023;BME280;65952;51.440;-2.054;2023-05-13T00:19:45;101390.50;;;10.71;74.67
77023;BME280;65952;51.440;-2.054;2023-05-13T00:22:10;101384.44;;;10.69;74.82
77023;BME280;65952;51.440;-2.054;2023-05-13T00:24:36;101389.25;;;10.56;74.80
77023;BME280;65952;51.440;-2.054;2023-05-13T00:27:01;101390.38;;;10.53;75.25
77023;BME280;65952;51.440;-2.054;2023-05-13T00:29:27;101399.84;;;10.38;75.57
77023;BME280;65952;51.440;-2.054;2023-05-13T00:31:52;101398.84;;;10.59;75.01
77023;BME280;65952;51.440;-2.054;2023-05-13T00:34:18;101390.66;;;10.40;75.57
77023;BME280;65952;51.440;-2.054;2023-05-13T00:36:43;101391.09;;;10.55;75.10
77023;BME280;65952;51.440;-2.054;2023-05-13T00:42:39;101384.69;;;10.27;76.29
77023;BME280;65952;51.440;-2.054;2023-05-13T00:45:05;101383.53;;;10.20;76.50
77023;BME280;65952;51.440;-2.054;2023-05-13T00:47:31;101374.53;;;10.31;76.05
77023;BME280;65952;51.440;-2.054;2023-05-13T00:49:57;101370.28;;;10.28;75.97
77023;BME280;65952;51.440;-2.054;2023-05-13T00:54:57;101371.16;;;10.48;75.24
77023;BME280;65952;51.440;-2.054;2023-05-13T00:57:23;101380.63;;;10.52;74.84
77023;BME280;65952;51.440;-2.054;2023-05-13T00:59:48;101389.81;;;10.50;75.31
77023;BME280;65952;51.440;-2.054;2023-05-13T01:02:55;101389.25;;;10.36;75.31
77023;BME280;65952;51.440;-2.054;2023-05-13T01:05:40;101398.50;;;10.13;76.36
77023;BME280;65952;51.440;-2.054;2023-05-13T01:11:48;101380.44;;;10.24;75.54
77023;BME280;65952;51.440;-2.054;2023-05-13T01:14:28;101393.59;;;10.28;75.61
77023;BME280;65952;51.440;-2.054;2023-05-13T01:17:01;101389.78;;;10.20;76.11
77023;BME280;65952;51.440;-2.054;2023-05-13T01:19:37;101383.84;;;10.27;76.01
77023;BME280;65952;51.440;-2.054;2023-05-13T01:22:04;101377.91;;;10.23;75.97
77023;BME280;65952;51.440;-2.054;2023-05-13T01:24:31;101382.16;;;10.35;75.88
77023;BME280;65952;51.440;-2.054;2023-05-13T01:26:56;101384.28;;;10.32;75.52
77023;BME280;65952;51.440;-2.054;2023-05-13T01:29:22;101380.56;;;10.13;75.99
77023;BME280;65952;51.440;-2.054;2023-05-13T01:31:49;101380.72;;;10.12;76.16
77023;BME280;65952;51.440;-2.054;2023-05-13T01:37:19;101373.34;;;10.14;76.20
77023;BME280;65952;51.440;-2.054;2023-05-13T01:39:45;101387.50;;;10.16;76.35
77023;BME280;65952;51.440;-2.054;2023-05-13T01:42:11;101378.47;;;10.27;75.86
77023;BME280;65952;51.440;-2.054;2023-05-13T01:44:36;101375.50;;;10.30;75.71
77023;BME280;65952;51.440;-2.054;2023-05-13T01:47:02;101372.22;;;10.06;76.44
77023;BME280;65952;51.440;-2.054;2023-05-13T01:52:30;101394.78;;;9.94;76.66
77023;BME280;65952;51.440;-2.054;2023-05-13T01:54:55;101379.84;;;10.01;76.51
77023;BME280;65952;51.440;-2.054;2023-05-13T01:57:21;101382.09;;;10.06;76.51
77023;BME280;65952;51.440;-2.054;2023-05-13T01:59:46;101377.47;;;10.08;76.17
77023;BME280;65952;51.440;-2.054;2023-05-13T02:02:12;101379.28;;;9.98;76.38
77023;BME280;65952;51.440;-2.054;2023-05-13T02:04:37;101379.81;;;9.91;77.13
77023;BME280;65952;51.440;-2.054;2023-05-13T02:07:03;101378.72;;;10.14;76.19
77023;BME280;65952;51.440;-2.054;2023-05-13T02:09:28;101383.19;;;9.93;76.83
77023;BME280;65952;51.440;-2.054;2023-05-13T02:11:54;101380.94;;;9.89;77.26
77023;BME280;65952;51.440;-2.054;2023-05-13T02:14:19;101378.16;;;10.00;76.98
77023;BME280;65952;51.440;-2.054;2023-05-13T02:23:48;101375.03;;;9.95;76.97
77023;BME280;65952;51.440;-2.054;2023-05-13T02:26:14;101377.28;;;9.90;77.57
77023;BME280;65952;51.440;-2.054;2023-05-13T02:28:39;101384.09;;;9.63;78.66
77023;BME280;65952;51.440;-2.054;2023-05-13T02:38:10;101368.50;;;9.78;78.38
77023;BME280;65952;51.440;-2.054;2023-05-13T02:40:36;101365.13;;;9.86;77.90
77023;BME280;65952;51.440;-2.054;2023-05-13T02:43:01;101362.09;;;9.69;78.32
77023;BME280;65952;51.440;-2.054;2023-05-13T02:52:11;101367.06;;;9.74;78.19
77023;BME280;65952;51.440;-2.054;2023-05-13T02:54:36;101358.25;;;9.62;78.68
77023;BME280;65952;51.440;-2.054;2023-05-13T02:57:02;101356.16;;;9.66;78.23
77023;BME280;65952;51.440;-2.054;2023-05-13T03:02:49;101363.16;;;9.88;77.59
77023;BME280;65952;51.440;-2.054;2023-05-13T03:05:14;101364.00;;;9.79;77.65
77023;BME280;65952;51.440;-2.054;2023-05-13T03:07:40;101370.28;;;9.68;78.09
77023;BME280;65952;51.440;-2.054;2023-05-13T03:10:06;101362.78;;;9.62;78.26
77023;BME280;65952;51.440;-2.054;2023-05-13T03:12:32;101368.34;;;9.80;77.82
77023;BME280;65952;51.440;-2.054;2023-05-13T03:14:58;101376.28;;;9.81;77.10
77023;BME280;65952;51.440;-2.054;2023-05-13T03:17:23;101376.41;;;9.89;76.83
77023;BME280;65952;51.440;-2.054;2023-05-13T03:19:50;101371.91;;;9.80;77.21
77023;BME280;65952;51.440;-2.054;2023-05-13T03:22:15;101361.72;;;9.74;77.76
77023;BME280;65952;51.440;-2.054;2023-05-13T03:24:40;101374.88;;;9.87;76.80
77023;BME280;65952;51.440;-2.054;2023-05-13T03:27:07;101364.78;;;9.69;77.86
77023;BME280;65952;51.440;-2.054;2023-05-13T03:29:32;101370.78;;;9.83;77.10
77023;BME280;65952;51.440;-2.054;2023-05-13T03:31:58;101362.84;;;9.71;77.58
77023;BME280;65952;51.440;-2.054;2023-05-13T03:34:23;101365.53;;;9.91;77.13
77023;BME280;65952;51.440;-2.054;2023-05-13T03:36:49;101375.84;;;9.86;76.79
77023;BME280;65952;51.440;-2.054;2023-05-13T03:39:14;101374.94;;;9.56;77.60
77023;BME280;65952;51.440;-2.054;2023-05-13T03:44:43;101374.34;;;9.52;77.37
77023;BME280;65952;51.440;-2.054;2023-05-13T03:47:08;101379.03;;;9.60;77.13
77023;BME280;65952;51.440;-2.054;2023-05-13T03:49:34;101373.66;;;9.60;77.36
77023;BME280;65952;51.440;-2.054;2023-05-13T03:51:59;101377.03;;;9.52;77.05
77023;BME280;65952;51.440;-2.054;2023-05-13T03:54:25;101377.13;;;9.51;77.17
77023;BME280;65952;51.440;-2.054;2023-05-13T03:56:50;101380.84;;;9.59;76.87
77023;BME280;65952;51.440;-2.054;2023-05-13T03:59:16;101374.25;;;9.64;76.64
77023;BME280;65952;51.440;-2.054;2023-05-13T04:01:41;101377.28;;;9.49;76.79
77023;BME280;65952;51.440;-2.054;2023-05-13T04:04:07;101371.53;;;9.54;77.06
77023;BME280;65952;51.440;-2.054;2023-05-13T04:06:32;101365.66;;;9.70;76.36
77023;BME280;65952;51.440;-2.054;2023-05-13T04:08:58;101378.16;;;9.59;76.79
77023;BME280;65952;51.440;-2.054;2023-05-13T04:11:23;101370.00;;;9.61;76.43
77023;BME280;65952;51.440;-2.054;2023-05-13T04:13:49;101376.94;;;9.73;76.13
77023;BME280;65952;51.440;-2.054;2023-05-13T04:16:14;101374.09;;;9.65;76.02
77023;BME280;65952;51.440;-2.054;2023-05-13T04:18:41;101375.50;;;9.69;76.30
77023;BME280;65952;51.440;-2.054;2023-05-13T04:21:07;101377.84;;;9.84;75.90
77023;BME280;65952;51.440;-2.054;2023-05-13T04:23:33;101371.72;;;9.72;76.29
77023;BME280;65952;51.440;-2.054;2023-05-13T04:25:58;101370.34;;;9.78;76.24
77023;BME280;65952;51.440;-2.054;2023-05-13T04:28:24;101367.66;;;9.78;76.24
77023;BME280;65952;51.440;-2.054;2023-05-13T04:30:49;101365.06;;;9.66;76.63
77023;BME280;65952;51.440;-2.054;2023-05-13T04:33:15;101363.88;;;9.49;77.80
77023;BME280;65952;51.440;-2.054;2023-05-13T04:35:41;101361.59;;;9.44;78.04
77023;BME280;65952;51.440;-2.054;2023-05-13T04:45:04;101375.44;;;9.19;78.70
77023;BME280;65952;51.440;-2.054;2023-05-13T04:47:29;101380.66;;;9.20;78.26
77023;BME280;65952;51.440;-2.054;2023-05-13T04:49:55;101383.59;;;9.38;78.08
77023;BME280;65952;51.440;-2.054;2023-05-13T04:56:07;101381.34;;;9.43;77.63
77023;BME280;65952;51.440;-2.054;2023-05-13T04:58:33;101395.03;;;9.19;78.11
77023;BME280;65952;51.440;-2.054;2023-05-13T05:00:58;101398.13;;;9.36;78.03
77023;BME280;65952;51.440;-2.054;2023-05-13T05:03:26;101387.78;;;9.31;78.13
77023;BME280;65952;51.440;-2.054;2023-05-13T05:05:51;101386.91;;;9.31;78.06
77023;BME280;65952;51.440;-2.054;2023-05-13T05:08:17;101385.19;;;9.51;77.55
77023;BME280;65952;51.440;-2.054;2023-05-13T05:10:42;101388.44;;;9.23;78.26
77023;BME280;65952;51.440;-2.054;2023-05-13T05:13:08;101385.28;;;9.39;78.03
77023;BME280;65952;51.440;-2.054;2023-05-13T05:15:35;101378.78;;;9.42;77.76
77023;BME280;65952;51.440;-2.054;2023-05-13T05:18:00;101397.38;;;9.34;77.65
77023;BME280;65952;51.440;-2.054;2023-05-13T05:20:26;101393.31;;;9.39;77.64
77023;BME280;65952;51.440;-2.054;2023-05-13T05:22:51;101387.59;;;9.54;77.33
77023;BME280;65952;51.440;-2.054;2023-05-13T05:25:17;101393.50;;;9.48;77.58
77023;BME280;65952;51.440;-2.054;2023-05-13T05:27:42;101385.94;;;9.63;77.24
77023;BME280;65952;51.440;-2.054;2023-05-13T05:30:09;101385.19;;;9.51;77.14
77023;BME280;65952;51.440;-2.054;2023-05-13T05:32:35;101395.16;;;9.39;77.77
77023;BME280;65952;51.440;-2.054;2023-05-13T05:41:49;101394.16;;;9.71;76.25
77023;BME280;65952;51.440;-2.054;2023-05-13T05:44:15;101396.66;;;9.63;76.48
77023;BME280;65952;51.440;-2.054;2023-05-13T05:46:40;101387.75;;;9.52;77.04
77023;BME280;65952;51.440;-2.054;2023-05-13T05:52:27;101395.25;;;9.68;76.81
77023;BME280;65952;51.440;-2.054;2023-05-13T05:54:53;101394.91;;;9.83;76.71
77023;BME280;65952;51.440;-2.054;2023-05-13T05:57:18;101391.53;;;9.50;77.86
77023;BME280;65952;51.440;-2.054;2023-05-13T05:59:44;101393.59;;;9.77;76.79
77023;BME280;65952;51.440;-2.054;2023-05-13T06:02:10;101400.16;;;9.94;76.34
77023;BME280;65952;51.440;-2.054;2023-05-13T06:07:57;101393.69;;;9.66;76.66
77023;BME280;65952;51.440;-2.054;2023-05-13T06:10:22;101398.97;;;9.67;76.68
77023;BME280;65952;51.440;-2.054;2023-05-13T06:12:51;101405.66;;;9.92;76.05
77023;BME280;65952;51.440;-2.054;2023-05-13T06:15:17;101397.28;;;9.76;76.74
77023;BME280;65952;51.440;-2.054;2023-05-13T06:17:42;101403.22;;;9.80;76.30
77023;BME280;65952;51.440;-2.054;2023-05-13T06:20:08;101408.03;;;9.76;76.57
77023;BME280;65952;51.440;-2.054;2023-05-13T06:22:33;101409.66;;;9.36;77.84
77023;BME280;65952;51.440;-2.054;2023-05-13T06:24:59;101412.81;;;9.72;76.79
77023;BME280;65952;51.440;-2.054;2023-05-13T06:27:24;101423.13;;;9.87;76.36
77023;BME280;65952;51.440;-2.054;2023-05-13T06:29:50;101420.22;;;10.00;76.09
77023;BME280;65952;51.440;-2.054;2023-05-13T06:35:19;101416.28;;;10.04;75.07
77023;BME280;65952;51.440;-2.054;2023-05-13T06:37:45;101429.53;;;9.96;75.15
77023;BME280;65952;51.440;-2.054;2023-05-13T06:40:11;101433.31;;;9.93;75.30
77023;BME280;65952;51.440;-2.054;2023-05-13T06:42:36;101435.44;;;9.89;75.41
77023;BME280;65952;51.440;-2.054;2023-05-13T06:45:06;101434.75;;;9.97;75.80
77023;BME280;65952;51.440;-2.054;2023-05-13T06:47:32;101433.91;;;9.97;75.16
77023;BME280;65952;51.440;-2.054;2023-05-13T06:49:57;101429.84;;;10.12;75.09
77023;BME280;65952;51.440;-2.054;2023-05-13T06:52:23;101430.56;;;10.14;74.55
77023;BME280;65952;51.440;-2.054;2023-05-13T06:54:48;101434.38;;;10.12;74.34
77023;BME280;65952;51.440;-2.054;2023-05-13T06:57:14;101437.50;;;10.17;74.25
77023;BME280;65952;51.440;-2.054;2023-05-13T06:59:39;101440.00;;;10.08;74.73
77023;BME280;65952;51.440;-2.054;2023-05-13T07:02:23;101436.06;;;10.03;75.17
77023;BME280;65952;51.440;-2.054;2023-05-13T07:04:49;101445.13;;;10.12;74.86
77023;BME280;65952;51.440;-2.054;2023-05-13T07:07:14;101438.44;;;10.06;75.06
77023;BME280;65952;51.440;-2.054;2023-05-13T07:09:40;101437.09;;;9.81;75.97
77023;BME280;65952;51.440;-2.054;2023-05-13T07:12:06;101446.44;;;9.86;75.96
77023;BME280;65952;51.440;-2.054;2023-05-13T07:18:13;101452.00;;;10.04;75.01
77023;BME280;65952;51.440;-2.054;2023-05-13T07:20:38;101451.19;;;10.23;74.91
77023;BME280;65952;51.440;-2.054;2023-05-13T07:23:04;101450.78;;;10.28;74.76
77023;BME280;65952;51.440;-2.054;2023-05-13T07:25:29;101451.50;;;10.20;75.01
77023;BME280;65952;51.440;-2.054;2023-05-13T07:27:54;101450.41;;;10.33;74.36
77023;BME280;65952;51.440;-2.054;2023-05-13T07:30:20;101449.06;;;10.17;74.44
77023;BME280;65952;51.440;-2.054;2023-05-13T07:32:46;101451.78;;;10.27;74.04
77023;BME280;65952;51.440;-2.054;2023-05-13T07:35:11;101458.41;;;10.23;73.98
77023;BME280;65952;51.440;-2.054;2023-05-13T07:37:37;101456.38;;;10.36;74.28
77023;BME280;65952;51.440;-2.054;2023-05-13T07:40:04;101451.69;;;10.38;74.04
77023;BME280;65952;51.440;-2.054;2023-05-13T07:46:10;101447.44;;;10.36;73.75
77023;BME280;65952;51.440;-2.054;2023-05-13T07:48:36;101447.50;;;10.15;73.83
77023;BME280;65952;51.440;-2.054;2023-05-13T07:51:01;101444.94;;;10.03;74.68
77023;BME280;65952;51.440;-2.054;2023-05-13T07:53:27;101441.28;;;10.04;74.12
77023;BME280;65952;51.440;-2.054;2023-05-13T07:55:53;101445.41;;;10.18;73.43
77023;BME280;65952;51.440;-2.054;2023-05-13T07:58:18;101448.47;;;10.04;74.02
77023;BME280;65952;51.440;-2.054;2023-05-13T08:00:44;101449.63;;;10.11;74.12
77023;BME280;65952;51.440;-2.054;2023-05-13T08:03:10;101449.66;;;10.21;73.71
77023;BME280;65952;51.440;-2.054;2023-05-13T08:05:36;101448.94;;;10.19;73.53
77023;BME280;65952;51.440;-2.054;2023-05-13T08:08:02;101444.59;;;10.28;73.81
77023;BME280;65952;51.440;-2.054;2023-05-13T08:10:28;101441.00;;;10.58;72.51
77023;BME280;65952;51.440;-2.054;2023-05-13T08:12:54;101445.22;;;10.90;71.51
77023;BME280;65952;51.440;-2.054;2023-05-13T08:15:22;101452.84;;;10.95;70.63
77023;BME280;65952;51.440;-2.054;2023-05-13T08:17:48;101450.03;;;10.96;71.06
77023;BME280;65952;51.440;-2.054;2023-05-13T08:20:13;101453.69;;;10.56;71.23
77023;BME280;65952;51.440;-2.054;2023-05-13T08:22:39;101455.38;;;10.47;72.53
77023;BME280;65952;51.440;-2.054;2023-05-13T08:28:33;101446.78;;;10.73;72.13
77023;BME280;65952;51.440;-2.054;2023-05-13T08:30:59;101451.16;;;10.54;72.52
77023;BME280;65952;51.440;-2.054;2023-05-13T08:33:30;101446.63;;;10.94;71.49
77023;BME280;65952;51.440;-2.054;2023-05-13T08:35:56;101448.59;;;11.12;70.89
77023;BME280;65952;51.440;-2.054;2023-05-13T08:38:23;101441.38;;;11.12;70.71
77023;BME280;65952;51.440;-2.054;2023-05-13T08:40:49;101444.16;;;11.30;71.11
77023;BME280;65952;51.440;-2.054;2023-05-13T08:43:15;101444.91;;;11.22;71.54
77023;BME280;65952;51.440;-2.054;2023-05-13T08:45:44;101442.72;;;11.46;70.64
77023;BME280;65952;51.440;-2.054;2023-05-13T08:48:11;101440.97;;;11.64;70.57
77023;BME280;65952;51.440;-2.054;2023-05-13T08:50:39;101437.63;;;11.52;70.01
77023;BME280;65952;51.440;-2.054;2023-05-13T08:59:48;101434.72;;;11.26;70.35
77023;BME280;65952;51.440;-2.054;2023-05-13T09:02:13;101434.63;;;11.46;70.22
77023;BME280;65952;51.440;-2.054;2023-05-13T09:04:40;101434.47;;;11.57;69.96
77023;BME280;65952;51.440;-2.054;2023-05-13T09:07:06;101439.91;;;11.37;70.51
77023;BME280;65952;51.440;-2.054;2023-05-13T09:12:54;101445.66;;;11.62;70.14
77023;BME280;65952;51.440;-2.054;2023-05-13T09:15:22;101442.78;;;11.74;69.57
77023;BME280;65952;51.440;-2.054;2023-05-13T09:18:02;101445.31;;;11.75;69.34
77023;BME280;65952;51.440;-2.054;2023-05-13T09:20:29;101451.22;;;11.89;69.46
77023;BME280;65952;51.440;-2.054;2023-05-13T09:26:29;101451.06;;;11.52;70.33
77023;BME280;65952;51.440;-2.054;2023-05-13T09:29:22;101448.56;;;11.79;70.13
77023;BME280;65952;51.440;-2.054;2023-05-13T09:34:26;101457.66;;;11.68;69.19
77023;BME280;65952;51.440;-2.054;2023-05-13T09:40:34;101454.53;;;11.73;69.85
77023;BME280;65952;51.440;-2.054;2023-05-13T09:43:02;101459.75;;;12.12;68.77
77023;BME280;65952;51.440;-2.054;2023-05-13T09:45:27;101464.75;;;12.07;68.51
77023;BME280;65952;51.440;-2.054;2023-05-13T09:47:53;101465.78;;;11.96;67.92
77023;BME280;65952;51.440;-2.054;2023-05-13T09:53:41;101468.72;;;11.65;68.85
77023;BME280;65952;51.440;-2.054;2023-05-13T09:56:08;101470.03;;;11.51;69.53
77023;BME280;65952;51.440;-2.054;2023-05-13T09:58:34;101471.09;;;11.68;68.57
77023;BME280;65952;51.440;-2.054;2023-05-13T10:01:00;101457.69;;;11.96;68.78
77023;BME280;65952;51.440;-2.054;2023-05-13T10:03:27;101463.03;;;12.06;67.68
77023;BME280;65952;51.440;-2.054;2023-05-13T10:05:53;101462.25;;;12.23;67.40
77023;BME280;65952;51.440;-2.054;2023-05-13T10:08:21;101462.25;;;12.41;67.24
77023;BME280;65952;51.440;-2.054;2023-05-13T10:10:48;101453.97;;;12.52;66.79
77023;BME280;65952;51.440;-2.054;2023-05-13T10:13:15;101462.97;;;12.61;66.46
77023;BME280;65952;51.440;-2.054;2023-05-13T10:15:48;101458.84;;;12.67;65.98
77023;BME280;65952;51.440;-2.054;2023-05-13T10:21:39;101449.53;;;12.79;66.02
77023;BME280;65952;51.440;-2.054;2023-05-13T10:24:06;101457.97;;;12.48;65.89
77023;BME280;65952;51.440;-2.054;2023-05-13T10:26:33;101457.81;;;13.04;65.85
77023;BME280;65952;51.440;-2.054;2023-05-13T10:28:58;101456.38;;;12.92;65.46
77023;BME280;65952;51.440;-2.054;2023-05-13T10:31:25;101451.44;;;12.87;66.37
77023;BME280;65952;51.440;-2.054;2023-05-13T10:37:25;101453.94;;;13.25;64.94
77023;BME280;65952;51.440;-2.054;2023-05-13T10:42:39;101450.22;;;13.44;63.90
77023;BME280;65952;51.440;-2.054;2023-05-13T10:45:09;101447.50;;;13.70;63.03
77023;BME280;65952;51.440;-2.054;2023-05-13T10:51:01;101449.03;;;13.81;63.02
77023;BME280;65952;51.440;-2.054;2023-05-13T10:53:30;101457.47;;;13.78;62.87
77023;BME280;65952;51.440;-2.054;2023-05-13T10:55:58;101456.81;;;13.49;62.68
77023;BME280;65952;51.440;-2.054;2023-05-13T10:58:28;101457.09;;;13.20;63.29
77023;BME280;65952;51.440;-2.054;2023-05-13T11:04:18;101459.00;;;13.28;63.75
77023;BME280;65952;51.440;-2.054;2023-05-13T11:06:46;101452.63;;;13.55;62.93
77023;BME280;65952;51.440;-2.054;2023-05-13T11:09:13;101461.91;;;13.87;62.44
77023;BME280;65952;51.440;-2.054;2023-05-13T11:11:40;101461.81;;;13.71;62.74
77023;BME280;65952;51.440;-2.054;2023-05-13T11:17:06;101459.22;;;14.38;60.00
77023;BME280;65952;51.440;-2.054;2023-05-13T11:22:08;101449.69;;;14.09;60.60
77023;BME280;65952;51.440;-2.054;2023-05-13T11:24:34;101447.50;;;14.13;61.11
77023;BME280;65952;51.440;-2.054;2023-05-13T11:29:47;101441.69;;;13.57;61.94
77023;BME280;65952;51.440;-2.054;2023-05-13T11:32:13;101436.19;;;13.40;62.56
77023;BME280;65952;51.440;-2.054;2023-05-13T11:34:49;101441.69;;;13.57;62.31
77023;BME280;65952;51.440;-2.054;2023-05-13T11:37:16;101441.28;;;13.78;61.87
77023;BME280;65952;51.440;-2.054;2023-05-13T11:39:42;101440.53;;;13.94;62.29
77023;BME280;65952;51.440;-2.054;2023-05-13T11:42:08;101436.44;;;14.33;60.85
77023;BME280;65952;51.440;-2.054;2023-05-13T11:44:35;101438.66;;;14.54;60.60
77023;BME280;65952;51.440;-2.054;2023-05-13T11:47:02;101437.41;;;14.23;59.94
77023;BME280;65952;51.440;-2.054;2023-05-13T11:49:45;101436.81;;;14.54;60.58
77023;BME280;65952;51.440;-2.054;2023-05-13T11:52:13;101439.44;;;14.29;60.74
77023;BME280;65952;51.440;-2.054;2023-05-13T11:57:26;101426.97;;;14.45;61.02
77023;BME280;65952;51.440;-2.054;2023-05-13T12:00:05;101436.69;;;14.13;61.27
77023;BME280;65952;51.440;-2.054;2023-05-13T12:02:33;101426.31;;;14.43;60.09
77023;BME280;65952;51.440;-2.054;2023-05-13T12:05:02;101419.78;;;14.70;60.57
77023;BME280;65952;51.440;-2.054;2023-05-13T12:07:29;101429.00;;;14.51;60.00
77023;BME280;65952;51.440;-2.054;2023-05-13T12:09:57;101421.47;;;14.88;59.41
77023;BME280;65952;51.440;-2.054;2023-05-13T12:12:23;101418.59;;;15.22;59.81
77023;BME280;65952;51.440;-2.054;2023-05-13T12:14:49;101412.09;;;15.48;57.71
77023;BME280;65952;51.440;-2.054;2023-05-13T12:17:16;101415.28;;;15.60;58.25
77023;BME280;65952;51.440;-2.054;2023-05-13T12:20:13;101419.72;;;15.44;57.34
77023;BME280;65952;51.440;-2.054;2023-05-13T12:25:40;101414.53;;;15.18;58.28
77023;BME280;65952;51.440;-2.054;2023-05-13T12:31:21;101417.91;;;15.20;58.12
77023;BME280;65952;51.440;-2.054;2023-05-13T12:33:48;101410.94;;;15.42;57.74
77023;BME280;65952;51.440;-2.054;2023-05-13T12:38:55;101412.84;;;15.82;57.13
77023;BME280;65952;51.440;-2.054;2023-05-13T12:41:22;101416.25;;;15.84;56.66
77023;BME280;65952;51.440;-2.054;2023-05-13T12:47:21;101417.25;;;16.46;54.95
77023;BME280;65952;51.440;-2.054;2023-05-13T12:49:55;101413.38;;;16.40;54.24
77023;BME280;65952;51.440;-2.054;2023-05-13T12:52:20;101411.34;;;16.42;55.11
77023;BME280;65952;51.440;-2.054;2023-05-13T12:54:46;101407.66;;;16.03;56.23
77023;BME280;65952;51.440;-2.054;2023-05-13T13:00:34;101409.31;;;15.73;56.73
77023;BME280;65952;51.440;-2.054;2023-05-13T13:02:59;101411.97;;;15.89;55.71
77023;BME280;65952;51.440;-2.054;2023-05-13T13:05:25;101412.44;;;16.01;56.43
77023;BME280;65952;51.440;-2.054;2023-05-13T13:07:51;101408.03;;;16.32;55.86
77023;BME280;65952;51.440;-2.054;2023-05-13T13:13:19;101407.66;;;16.35;55.56
77023;BME280;65952;51.440;-2.054;2023-05-13T13:15:45;101399.75;;;16.56;54.40
77023;BME280;65952;51.440;-2.054;2023-05-13T13:18:10;101409.16;;;16.84;54.59
77023;BME280;65952;51.440;-2.054;2023-05-13T13:20:36;101402.06;;;16.60;54.81
77023;BME280;65952;51.440;-2.054;2023-05-13T13:23:02;101404.34;;;16.71;54.63
77023;BME280;65952;51.440;-2.054;2023-05-13T13:25:27;101401.16;;;16.90;54.54
77023;BME280;65952;51.440;-2.054;2023-05-13T13:27:53;101397.63;;;16.67;54.30
77023;BME280;65952;51.440;-2.054;2023-05-13T13:30:19;101399.63;;;17.11;54.00
77023;BME280;65952;51.440;-2.054;2023-05-13T13:32:44;101394.25;;;17.03;54.29
77023;BME280;65952;51.440;-2.054;2023-05-13T13:35:10;101395.22;;;17.10;54.45
77023;BME280;65952;51.440;-2.054;2023-05-13T13:37:35;101389.69;;;16.80;54.88
77023;BME280;65952;51.440;-2.054;2023-05-13T13:43:42;101372.84;;;17.23;53.33
77023;BME280;65952;51.440;-2.054;2023-05-13T13:46:07;101372.97;;;17.60;52.93
77023;BME280;65952;51.440;-2.054;2023-05-13T13:48:32;101365.78;;;17.22;52.49
77023;BME280;65952;51.440;-2.054;2023-05-13T13:51:07;101366.63;;;16.84;53.84
77023;BME280;65952;51.440;-2.054;2023-05-13T13:56:54;101365.66;;;16.39;56.79
77023;BME280;65952;51.440;-2.054;2023-05-13T13:59:20;101358.34;;;16.16;57.54
77023;BME280;65952;51.440;-2.054;2023-05-13T14:01:45;101356.50;;;16.08;57.20
77023;BME280;65952;51.440;-2.054;2023-05-13T14:06:36;101342.47;;;16.51;56.38
77023;BME280;65952;51.440;-2.054;2023-05-13T14:12:24;101343.41;;;16.44;56.05
77023;BME280;65952;51.440;-2.054;2023-05-13T14:14:49;101348.16;;;16.65;54.78
77023;BME280;65952;51.440;-2.054;2023-05-13T14:17:15;101343.88;;;17.09;55.46
77023;BME280;65952;51.440;-2.054;2023-05-13T14:19:40;101343.78;;;17.02;55.33
77023;BME280;65952;51.440;-2.054;2023-05-13T14:25:22;101350.63;;;16.89;54.93
77023;BME280;65952;51.440;-2.054;2023-05-13T14:27:47;101343.34;;;16.90;54.87
77023;BME280;65952;51.440;-2.054;2023-05-13T14:30:13;101336.09;;;17.20;55.30
77023;BME280;65952;51.440;-2.054;2023-05-13T14:32:40;101328.31;;;17.62;53.26
77023;BME280;65952;51.440;-2.054;2023-05-13T14:35:09;101334.34;;;17.79;52.90
77023;BME280;65952;51.440;-2.054;2023-05-13T14:37:34;101327.31;;;17.33;52.83
77023;BME280;65952;51.440;-2.054;2023-05-13T14:39:59;101320.28;;;17.39;54.06
77023;BME280;65952;51.440;-2.054;2023-05-13T14:42:25;101322.38;;;17.74;54.01
77023;BME280;65952;51.440;-2.054;2023-05-13T14:44:50;101317.84;;;17.81;52.26
77023;BME280;65952;51.440;-2.054;2023-05-13T14:47:16;101317.03;;;17.80;52.86
77023;BME280;65952;51.440;-2.054;2023-05-13T14:49:41;101303.50;;;18.24;52.37
77023;BME280;65952;51.440;-2.054;2023-05-13T14:55:28;101305.47;;;17.93;52.80
77023;BME280;65952;51.440;-2.054;2023-05-13T14:57:54;101306.09;;;17.74;53.25
77023;BME280;65952;51.440;-2.054;2023-05-13T15:00:22;101296.13;;;17.96;53.30
77023;BME280;65952;51.440;-2.054;2023-05-13T15:02:47;101294.78;;;17.70;53.14
77023;BME280;65952;51.440;-2.054;2023-05-13T15:08:36;101290.81;;;17.73;54.50
77023;BME280;65952;51.440;-2.054;2023-05-13T15:11:02;101294.66;;;17.63;53.23
77023;BME280;65952;51.440;-2.054;2023-05-13T15:13:27;101283.88;;;17.85;53.31
77023;BME280;65952;51.440;-2.054;2023-05-13T15:15:56;101276.59;;;17.70;54.60
77023;BME280;65952;51.440;-2.054;2023-05-13T15:25:05;101269.88;;;17.88;54.11
77023;BME280;65952;51.440;-2.054;2023-05-13T15:27:31;101255.03;;;18.06;53.85
77023;BME280;65952;51.440;-2.054;2023-05-13T15:29:56;101263.56;;;17.66;54.27
77023;BME280;65952;51.440;-2.054;2023-05-13T15:32:22;101252.91;;;17.64;53.66
77023;BME280;65952;51.440;-2.054;2023-05-13T15:34:47;101243.81;;;17.72;55.01
77023;BME280;65952;51.440;-2.054;2023-05-13T15:37:13;101255.66;;;17.86;54.29
77023;BME280;65952;51.440;-2.054;2023-05-13T15:39:38;101256.28;;;17.66;53.64
77023;BME280;65952;51.440;-2.054;2023-05-13T15:42:04;101241.78;;;17.96;52.88